Time;durP1;ratioP1;P1;durP2;ratioP2;P2;SDS_P1;SDS_P2;PMS_P1;PMS_P2;Temp;Humidity;BMP_temperature;BMP_pressure;BME280_temperature;BME280_humidity;BME280_pressure;Samples;Min_cycle;Max_cycle;Signal;HPM_P1;HPM_P2
2023/08/07 00:00:25;;;;;;;3.33;0.70;;;;;;;24.59;43.34;99966.72;5095442;28;20047;-71
2023/08/07 00:02:51;;;;;;;3.03;0.98;;;;;;;24.58;43.33;99960.53;5095457;28;20437;-72
2023/08/07 00:05:16;;;;;;;2.00;0.77;;;;;;;24.60;43.11;99968.44;5095723;28;20023;-71
2023/08/07 00:07:42;;;;;;;1.73;0.63;;;;;;;24.58;43.42;99963.19;5095197;28;20026;-71
2023/08/07 00:10:08;;;;;;;2.30;0.65;;;;;;;24.56;43.10;99967.78;5094827;28;20020;-71
2023/08/07 00:12:33;;;;;;;1.70;0.60;;;;;;;24.57;43.43;99963.28;5111015;28;20105;-71
2023/08/07 00:15:00;;;;;;;1.73;0.80;;;;;;;24.55;43.17;99971.38;5095179;28;20030;-72
2023/08/07 00:17:26;;;;;;;1.67;0.65;;;;;;;24.53;43.35;99965.31;5095329;28;20432;-70
2023/08/07 00:19:51;;;;;;;2.15;0.88;;;;;;;24.51;43.11;99964.56;5094997;28;20116;-71
2023/08/07 00:22:17;;;;;;;2.63;0.85;;;;;;;24.51;43.38;99967.25;5095209;28;20416;-70
2023/08/07 00:24:42;;;;;;;2.90;0.82;;;;;;;24.50;43.46;99963.69;5094801;28;20020;-71
2023/08/07 00:27:10;;;;;;;2.53;0.60;;;;;;;24.51;43.24;99961.91;5094917;28;20065;-70
2023/08/07 00:29:36;;;;;;;1.88;0.80;;;;;;;24.49;43.48;99963.81;5094924;28;20034;-71
2023/08/07 00:32:02;;;;;;;2.60;0.70;;;;;;;24.50;43.49;99968.19;5093964;28;20152;-70
2023/08/07 00:34:28;;;;;;;1.73;0.60;;;;;;;24.52;43.37;99960.94;5095060;28;20494;-71
2023/08/07 00:36:53;;;;;;;3.40;0.93;;;;;;;24.49;43.26;99962.00;5094227;28;20020;-71
2023/08/07 00:39:18;;;;;;;2.30;0.80;;;;;;;24.49;43.36;99961.13;5094872;28;20020;-70
2023/08/07 00:41:44;;;;;;;1.88;0.80;;;;;;;24.47;43.43;99958.59;5094890;28;20090;-72
2023/08/07 00:44:09;;;;;;;1.50;0.68;;;;;;;24.47;43.46;99957.72;5094814;28;20119;-71
2023/08/07 00:46:36;;;;;;;2.47;0.80;;;;;;;24.46;43.52;99950.69;5094476;28;20032;-70
2023/08/07 00:49:02;;;;;;;2.08;0.50;;;;;;;24.44;43.21;99955.28;5094505;28;20494;-71
2023/08/07 00:51:28;;;;;;;2.08;0.85;;;;;;;24.43;43.61;99953.56;5094322;28;20031;-72
2023/08/07 00:53:54;;;;;;;1.85;0.65;;;;;;;24.45;43.33;99946.31;5094505;28;20032;-71
2023/08/07 00:56:20;;;;;;;2.28;0.93;;;;;;;24.43;43.40;99953.56;5094265;28;20028;-71
2023/08/07 00:58:46;;;;;;;2.15;0.80;;;;;;;24.42;43.58;99952.72;5093556;28;20024;-72
2023/08/07 01:01:11;;;;;;;2.20;1.05;;;;;;;24.45;43.58;99955.16;5094122;28;20591;-71
2023/08/07 01:03:37;;;;;;;1.65;0.75;;;;;;;24.43;43.43;99957.09;5094095;28;20043;-71
2023/08/07 01:06:03;;;;;;;2.35;0.68;;;;;;;24.42;43.29;99957.19;5094096;28;20044;-70
2023/08/07 01:08:29;;;;;;;2.08;0.80;;;;;;;24.44;43.54;99957.94;5094215;28;20452;-71
2023/08/07 01:11:18;;;;;;;1.67;0.70;;;;;;;24.44;43.40;99960.63;5094091;28;20028;-71
2023/08/07 01:14:03;;;;;;;1.90;0.73;;;;;;;24.43;43.41;99961.56;5094003;28;20120;-70
2023/08/07 01:16:42;;;;;;;1.40;0.60;;;;;;;24.42;43.34;99959.84;5092967;28;20089;-71
2023/08/07 01:19:19;;;;;;;1.63;0.70;;;;;;;24.42;43.25;99957.19;5094030;28;20024;-72
2023/08/07 01:21:48;;;;;;;1.35;0.60;;;;;;;24.44;43.17;99963.28;5093487;28;20020;-71
2023/08/07 01:24:14;;;;;;;1.55;0.50;;;;;;;24.42;43.35;99959.84;5093957;28;20024;-71
2023/08/07 01:26:41;;;;;;;1.83;0.65;;;;;;;24.43;43.22;99958.88;5094008;28;20089;-71
2023/08/07 01:29:25;;;;;;;1.80;0.88;;;;;;;24.40;43.42;99963.47;5093683;28;20548;-70
2023/08/07 01:31:54;;;;;;;2.10;0.80;;;;;;;24.40;43.40;99963.47;5093786;28;20043;-71
2023/08/07 01:34:23;;;;;;;2.47;0.85;;;;;;;24.40;43.42;99952.81;5093636;28;20035;-71
2023/08/07 01:36:51;;;;;;;2.00;0.80;;;;;;;24.38;43.14;99954.75;5093437;28;20616;-71
2023/08/07 01:39:19;;;;;;;1.40;0.60;;;;;;;24.35;43.32;99954.94;5093621;28;20601;-72
2023/08/07 01:41:45;;;;;;;1.25;0.55;;;;;;;24.35;43.34;99954.94;5092411;28;20082;-71
2023/08/07 01:44:10;;;;;;;1.20;0.57;;;;;;;24.33;43.23;99951.53;5093540;28;20028;-71
2023/08/07 01:46:36;;;;;;;2.08;0.70;;;;;;;24.30;43.53;99949.06;5093428;28;20468;-72
2023/08/07 01:49:01;;;;;;;2.00;0.70;;;;;;;24.28;43.34;99945.66;5093180;28;20028;-72
2023/08/07 01:51:27;;;;;;;1.33;0.47;;;;;;;24.30;43.46;99957.06;5093044;28;20023;-71
2023/08/07 01:53:52;;;;;;;2.20;0.90;;;;;;;24.27;43.42;99952.78;5093308;28;20035;-70
2023/08/07 01:56:18;;;;;;;1.77;0.80;;;;;;;24.27;43.63;99951.94;5093119;28;20032;-71
2023/08/07 01:58:43;;;;;;;2.22;0.90;;;;;;;24.26;43.62;99960.91;5093143;28;20020;-72
2023/08/07 02:01:09;;;;;;;2.00;0.60;;;;;;;24.24;43.39;99957.47;5092927;28;20048;-71
2023/08/07 02:03:34;;;;;;;1.67;0.60;;;;;;;24.24;43.33;99957.47;5093207;28;20028;-71
2023/08/07 02:06:01;;;;;;;2.05;0.82;;;;;;;24.22;43.57;99959.41;5092538;28;20032;-69
2023/08/07 02:08:28;;;;;;;1.83;0.57;;;;;;;24.21;43.48;99963.84;5092345;28;20051;-71
2023/08/07 02:10:53;;;;;;;1.60;0.57;;;;;;;24.22;43.52;99962.06;5092751;28;20103;-72
2023/08/07 02:13:19;;;;;;;1.50;0.60;;;;;;;24.22;43.19;99962.06;5092862;28;20536;-69
2023/08/07 02:15:44;;;;;;;1.60;0.60;;;;;;;24.22;43.38;99964.72;5092925;28;20472;-71
2023/08/07 02:18:09;;;;;;;1.83;0.60;;;;;;;24.24;43.56;99965.47;5092917;28;20020;-70
2023/08/07 02:20:35;;;;;;;1.38;0.68;;;;;;;24.23;43.28;99958.44;5092539;28;20099;-71
2023/08/07 02:23:00;;;;;;;1.92;0.63;;;;;;;24.24;43.50;99962.81;5092957;28;20078;-70
2023/08/07 02:25:26;;;;;;;1.63;0.68;;;;;;;24.21;43.42;99953.19;5091508;28;20472;-71
2023/08/07 02:27:51;;;;;;;2.35;1.13;;;;;;;24.22;43.29;99959.41;5092819;28;20032;-71
2023/08/07 02:30:17;;;;;;;1.23;0.60;;;;;;;24.20;43.35;99955.94;5092493;28;20024;-72
2023/08/07 02:32:44;;;;;;;2.00;0.50;;;;;;;24.20;43.35;99958.63;5092634;28;20027;-70
2023/08/07 02:35:10;;;;;;;2.60;0.70;;;;;;;24.20;43.32;99961.28;5092424;28;20042;-72
2023/08/07 02:37:36;;;;;;;1.75;0.60;;;;;;;24.17;43.37;99956.19;5092524;28;20032;-71
2023/08/07 02:40:02;;;;;;;1.40;0.47;;;;;;;24.17;43.55;99953.50;5092576;28;20536;-70
2023/08/07 02:42:27;;;;;;;1.80;0.70;;;;;;;24.18;43.37;99952.53;5092558;28;20020;-72
2023/08/07 02:44:52;;;;;;;2.13;0.50;;;;;;;24.22;43.56;99954.06;5092414;28;20032;-71
2023/08/07 02:47:18;;;;;;;1.20;0.50;;;;;;;24.22;43.46;99954.91;5092369;28;20488;-71
2023/08/07 02:49:43;;;;;;;2.40;0.77;;;;;;;24.25;43.12;99951.16;5091981;28;20043;-71
2023/08/07 02:52:09;;;;;;;1.50;0.60;;;;;;;24.20;43.44;99950.63;5092379;28;20040;-71
2023/08/07 02:54:34;;;;;;;1.23;0.50;;;;;;;24.19;43.51;99955.13;5092482;28;20484;-71
2023/08/07 02:57:00;;;;;;;1.85;0.70;;;;;;;24.17;43.51;99956.19;5092368;28;20028;-71
2023/08/07 02:59:37;;;;;;;1.50;0.60;;;;;;;24.15;43.49;99953.59;5092244;28;20031;-70
2023/08/07 03:02:03;;;;;;;1.40;0.50;;;;;;;24.15;43.35;99947.44;5091722;28;20567;-71
2023/08/07 03:04:28;;;;;;;1.75;0.70;;;;;;;24.14;43.36;99946.56;5092277;28;20052;-71
2023/08/07 03:06:54;;;;;;;1.15;0.50;;;;;;;24.11;43.57;99955.63;5090964;28;20034;-71
2023/08/07 03:09:20;;;;;;;1.88;0.47;;;;;;;24.12;43.40;99954.66;5092086;28;20429;-71
2023/08/07 03:11:45;;;;;;;1.38;0.50;;;;;;;24.11;43.45;99952.09;5091902;28;20020;-71
2023/08/07 03:14:10;;;;;;;1.25;0.50;;;;;;;24.12;43.38;99954.66;5091809;28;20028;-71
2023/08/07 03:16:36;;;;;;;2.75;0.75;;;;;;;24.09;43.35;99946.88;5091772;28;20035;-71
2023/08/07 03:19:01;;;;;;;1.52;0.50;;;;;;;24.06;43.53;99955.03;5091983;28;20027;-71
2023/08/07 03:21:27;;;;;;;0.82;0.40;;;;;;;24.08;43.45;99950.50;5091392;28;20027;-71
2023/08/07 03:23:53;;;;;;;1.58;0.60;;;;;;;24.07;43.53;99956.78;5092236;28;20036;-72
2023/08/07 03:26:18;;;;;;;1.35;0.60;;;;;;;24.06;43.59;99956.88;5092303;28;20432;-71
2023/08/07 03:28:46;;;;;;;1.60;0.65;;;;;;;24.05;43.60;99960.47;5091882;28;20034;-70
2023/08/07 03:31:11;;;;;;;1.17;0.50;;;;;;;24.08;43.54;99946.97;5091527;28;20028;-70
2023/08/07 03:33:37;;;;;;;2.35;0.60;;;;;;;24.05;43.52;99958.66;5092009;28;20031;-72
2023/08/07 03:36:02;;;;;;;1.63;0.60;;;;;;;24.06;43.47;99960.38;5091767;28;20072;-72
2023/08/07 03:38:28;;;;;;;1.75;0.70;;;;;;;24.02;43.61;99961.53;5091995;28;20444;-71
2023/08/07 03:40:53;;;;;;;1.98;0.52;;;;;;;24.02;43.47;99961.53;5091670;28;20399;-71
2023/08/07 03:43:19;;;;;;;1.80;0.50;;;;;;;24.01;43.64;99962.47;5107537;28;20027;-71
2023/08/07 03:45:44;;;;;;;2.05;0.75;;;;;;;23.99;43.58;99954.63;5091281;28;20092;-72
2023/08/07 03:48:10;;;;;;;2.05;0.70;;;;;;;23.98;43.57;99957.38;5091940;28;20028;-70
2023/08/07 03:50:37;;;;;;;2.22;0.60;;;;;;;24.01;43.51;99957.16;5091912;28;20491;-71
2023/08/07 03:53:04;;;;;;;1.27;0.47;;;;;;;23.98;43.59;99954.69;5091613;28;20403;-71
2023/08/07 03:55:29;;;;;;;1.05;0.43;;;;;;;24.02;43.43;99958.84;5091808;28;20070;-71
2023/08/07 03:57:55;;;;;;;1.73;0.50;;;;;;;24.02;43.62;99958.84;5092006;28;20021;-70
2023/08/07 04:00:20;;;;;;;2.05;0.80;;;;;;;24.09;43.48;99954.88;5089709;28;20036;-71
2023/08/07 04:02:46;;;;;;;0.75;0.30;;;;;;;24.09;43.22;99948.69;5091617;28;20016;-71
2023/08/07 04:05:11;;;;;;;0.80;0.40;;;;;;;24.10;43.26;99953.91;5091845;28;20376;-71
2023/08/07 04:07:37;;;;;;;1.83;0.70;;;;;;;24.10;43.26;99956.59;5091569;28;20028;-72
2023/08/07 04:10:02;;;;;;;1.30;0.40;;;;;;;24.06;43.40;99949.72;5091633;28;20031;-72
2023/08/07 04:12:27;;;;;;;1.40;0.52;;;;;;;24.10;43.45;99947.72;5091573;28;20020;-71
2023/08/07 04:14:53;;;;;;;1.48;0.77;;;;;;;24.07;43.30;99955.91;5089892;28;20109;-71
2023/08/07 04:17:18;;;;;;;1.73;0.50;;;;;;;24.03;43.38;99952.59;5091589;28;20051;-71
2023/08/07 04:19:44;;;;;;;1.40;0.40;;;;;;;23.96;43.41;99944.13;5091345;28;20365;-71
2023/08/07 04:22:09;;;;;;;1.17;0.50;;;;;;;23.97;43.67;99945.84;5091299;28;20024;-71
2023/08/07 04:24:35;;;;;;;1.13;0.50;;;;;;;23.95;43.60;99946.91;5091432;28;20058;-70
2023/08/07 04:27:00;;;;;;;1.00;0.43;;;;;;;23.95;43.65;99968.22;5091235;28;20389;-71
2023/08/07 04:29:25;;;;;;;1.10;0.50;;;;;;;24.00;43.43;99955.44;5090809;28;20468;-71
2023/08/07 04:31:51;;;;;;;1.52;0.40;;;;;;;24.03;43.34;99955.25;5091442;28;20024;-71
2023/08/07 04:34:16;;;;;;;1.77;0.70;;;;;;;24.07;43.41;99962.09;5095009;28;20031;-71
2023/08/07 04:36:42;;;;;;;1.02;0.50;;;;;;;24.03;43.48;99954.41;5095061;28;20028;-71
2023/08/07 04:39:08;;;;;;;0.88;0.38;;;;;;;23.98;43.41;99962.69;5094702;28;20060;-71
2023/08/07 04:41:33;;;;;;;1.70;0.60;;;;;;;23.98;43.33;99968.03;5094823;28;20024;-71
2023/08/07 04:43:58;;;;;;;0.80;0.45;;;;;;;23.96;43.53;99964.59;5094559;28;20020;-69
2023/08/07 04:46:24;;;;;;;2.03;0.40;;;;;;;23.94;43.69;99961.19;5093311;28;20024;-71
2023/08/07 04:48:49;;;;;;;1.27;0.50;;;;;;;23.96;43.53;99967.25;5094682;28;20524;-70
2023/08/07 04:51:15;;;;;;;1.55;0.50;;;;;;;23.98;43.43;99965.38;5094571;28;20130;-71
2023/08/07 04:53:41;;;;;;;0.65;0.32;;;;;;;24.04;43.29;99964.97;5094396;28;20032;-70
2023/08/07 04:56:06;;;;;;;1.10;0.40;;;;;;;23.98;43.65;99957.38;5093086;28;20035;-71
2023/08/07 04:58:32;;;;;;;0.98;0.40;;;;;;;23.95;43.53;99965.56;5094115;28;20027;-70
2023/08/07 05:00:58;;;;;;;2.28;0.60;;;;;;;23.93;43.52;99964.81;5094090;28;20047;-72
2023/08/07 05:03:25;;;;;;;1.55;0.60;;;;;;;23.98;43.24;99968.03;5094426;28;20025;-70
2023/08/07 05:05:50;;;;;;;1.17;0.40;;;;;;;23.92;43.43;99963.94;5094189;28;20583;-70
2023/08/07 05:08:17;;;;;;;2.00;0.50;;;;;;;23.91;43.48;99966.72;5094315;28;20101;-69
2023/08/07 05:10:42;;;;;;;1.60;0.50;;;;;;;23.91;43.48;99964.91;5094239;28;20502;-69
2023/08/07 05:13:08;;;;;;;1.35;0.50;;;;;;;23.90;43.50;99970.31;5093740;28;20032;-71
2023/08/07 05:15:33;;;;;;;1.42;0.50;;;;;;;23.90;43.58;99967.66;5094139;28;20036;-71
2023/08/07 05:17:59;;;;;;;1.50;0.50;;;;;;;23.87;43.62;99966.91;5094022;28;20032;-71
2023/08/07 05:20:24;;;;;;;2.03;0.50;;;;;;;23.92;43.62;99963.09;5094088;28;20048;-71
2023/08/07 05:22:50;;;;;;;1.42;0.50;;;;;;;23.91;43.36;99966.72;5093912;28;20056;-70
2023/08/07 05:25:16;;;;;;;1.48;0.43;;;;;;;23.91;43.58;99961.41;5093939;28;20527;-71
2023/08/07 05:27:45;;;;;;;1.60;0.52;;;;;;;23.89;43.35;99964.16;5093538;28;20032;-71
2023/08/07 05:30:11;;;;;;;1.55;0.50;;;;;;;23.96;43.28;99962.78;5094090;28;20020;-71
2023/08/07 05:32:40;;;;;;;0.63;0.30;;;;;;;23.95;43.25;99962.88;5093946;28;20024;-69
2023/08/07 05:35:06;;;;;;;1.25;0.50;;;;;;;23.97;43.40;99966.31;5093705;28;20055;-71
2023/08/07 05:37:33;;;;;;;1.58;0.60;;;;;;;23.94;43.41;99972.72;5093618;28;20035;-72
2023/08/07 05:39:58;;;;;;;0.93;0.43;;;;;;;23.99;43.24;99961.75;5093576;28;20070;-71
2023/08/07 05:42:24;;;;;;;1.88;0.52;;;;;;;24.00;43.64;99964.31;5093370;28;20032;-70
2023/08/07 05:44:49;;;;;;;0.63;0.38;;;;;;;23.99;43.30;99975.06;5091893;28;20484;-70
2023/08/07 05:47:15;;;;;;;0.93;0.30;;;;;;;23.99;43.21;99975.06;5093344;28;20432;-70
2023/08/07 05:49:41;;;;;;;1.13;0.40;;;;;;;24.04;43.41;99978.28;5093382;28;20024;-72
2023/08/07 05:52:07;;;;;;;1.48;0.60;;;;;;;23.99;43.30;99980.41;5093545;28;20024;-71
2023/08/07 05:54:32;;;;;;;1.50;0.50;;;;;;;24.02;43.19;99971.34;5093317;28;20484;-71
2023/08/07 05:56:58;;;;;;;1.40;0.55;;;;;;;23.99;43.34;99975.06;5092880;28;20101;-71
2023/08/07 05:59:23;;;;;;;0.60;0.30;;;;;;;24.02;43.45;99974.84;5093167;28;20020;-71
2023/08/07 06:01:49;;;;;;;1.48;0.70;;;;;;;24.02;43.22;99966.84;5093070;28;20089;-72
2023/08/07 06:04:14;;;;;;;0.65;0.40;;;;;;;23.98;43.27;99970.69;5093114;28;20056;-70
2023/08/07 06:06:40;;;;;;;1.13;0.40;;;;;;;24.01;43.49;99978.47;5093183;28;20024;-71
2023/08/07 06:09:06;;;;;;;2.17;0.45;;;;;;;24.02;43.39;99969.50;5092971;28;20020;-70
2023/08/07 06:11:32;;;;;;;0.70;0.30;;;;;;;24.01;43.54;99973.16;5091422;28;20107;-70
2023/08/07 06:13:58;;;;;;;1.45;0.55;;;;;;;24.02;43.13;99977.50;5092880;28;20028;-71
2023/08/07 06:16:24;;;;;;;0.82;0.40;;;;;;;24.00;43.38;99982.97;5093008;28;20127;-72
2023/08/07 06:18:49;;;;;;;0.75;0.40;;;;;;;24.00;43.20;99982.09;5092924;28;20020;-71
2023/08/07 06:21:15;;;;;;;0.95;0.38;;;;;;;23.98;43.47;99979.53;5091607;28;20373;-70
2023/08/07 06:23:40;;;;;;;1.13;0.50;;;;;;;23.95;43.45;99979.75;5092818;28;20035;-71
2023/08/07 06:26:07;;;;;;;1.38;0.55;;;;;;;23.94;43.43;99974.50;5092324;28;20024;-70
2023/08/07 06:28:33;;;;;;;0.73;0.30;;;;;;;23.91;43.54;99977.41;5092605;28;20036;-71
2023/08/07 06:31:07;;;;;;;2.20;0.60;;;;;;;23.92;43.43;99981.75;5092663;28;20449;-70
2023/08/07 06:33:35;;;;;;;1.65;0.60;;;;;;;23.92;43.23;99977.28;5092535;28;20020;-71
2023/08/07 06:36:02;;;;;;;1.95;0.55;;;;;;;23.89;43.46;99980.16;5092774;28;20072;-71
2023/08/07 06:38:28;;;;;;;0.85;0.40;;;;;;;23.91;43.41;99983.56;5092439;28;20028;-72
2023/08/07 06:40:53;;;;;;;1.42;0.60;;;;;;;23.89;43.39;99979.28;5090707;28;20032;-70
2023/08/07 06:43:19;;;;;;;1.55;0.50;;;;;;;23.87;43.53;99980.25;5092704;28;20031;-71
2023/08/07 06:45:55;;;;;;;1.27;0.68;;;;;;;23.87;43.66;99988.25;5092261;28;20035;-71
2023/08/07 06:48:20;;;;;;;;;;;;;;;23.89;43.52;99984.63;5092817;28;20032;-71
2023/08/07 06:50:47;;;;;;;0.97;0.40;;;;;;;23.90;43.42;99981.00;5092436;28;19919;-71
2023/08/07 06:53:12;;;;;;;1.73;0.43;;;;;;;23.90;43.62;99986.31;5092301;28;20111;-71
2023/08/07 06:55:38;;;;;;;0.90;0.40;;;;;;;23.89;43.68;99985.47;5091373;28;20149;-71
2023/08/07 06:58:03;;;;;;;0.95;0.47;;;;;;;23.90;43.73;99981.84;5092385;28;20024;-71
2023/08/07 07:00:29;;;;;;;1.15;0.40;;;;;;;23.91;43.60;99985.38;5092081;28;20142;-70
2023/08/07 07:02:55;;;;;;;0.93;0.50;;;;;;;23.90;43.45;99989.84;5092088;28;20024;-71
2023/08/07 07:05:20;;;;;;;1.02;0.40;;;;;;;23.91;43.47;99986.22;5092167;28;20028;-71
2023/08/07 07:07:46;;;;;;;0.60;0.30;;;;;;;23.92;43.56;99990.59;5092136;28;20034;-72
2023/08/07 07:10:12;;;;;;;0.60;0.38;;;;;;;23.96;43.73;99991.25;5091619;28;20158;-71
2023/08/07 07:12:37;;;;;;;1.52;0.47;;;;;;;23.97;43.34;99987.66;5092165;28;20158;-71
2023/08/07 07:15:03;;;;;;;0.98;0.32;;;;;;;23.96;43.42;99993.91;5092088;28;20110;-71
2023/08/07 07:17:29;;;;;;;1.00;0.50;;;;;;;23.97;43.56;99992.97;5091871;28;20036;-70
2023/08/07 07:19:55;;;;;;;1.10;0.50;;;;;;;23.97;43.28;99987.66;5090966;28;20428;-70
2023/08/07 07:22:20;;;;;;;0.93;0.30;;;;;;;24.00;43.44;99995.44;5092186;28;20035;-71
2023/08/07 07:24:45;;;;;;;1.15;0.50;;;;;;;24.02;43.51;99995.34;5091669;28;20471;-70
2023/08/07 07:27:11;;;;;;;0.73;0.22;;;;;;;23.99;43.44;99989.25;5091860;28;20036;-72
2023/08/07 07:29:36;;;;;;;1.13;0.40;;;;;;;24.02;43.39;99996.16;5091875;28;20074;-71
2023/08/07 07:32:02;;;;;;;1.33;0.55;;;;;;;24.04;43.44;99994.28;5091779;28;20395;-71
2023/08/07 07:34:27;;;;;;;1.38;0.55;;;;;;;24.04;43.42;99994.28;5091861;28;20024;-71
2023/08/07 07:36:54;;;;;;;1.55;0.57;;;;;;;24.06;43.46;99992.34;5091860;28;20078;-71
2023/08/07 07:39:19;;;;;;;1.52;0.50;;;;;;;24.08;43.40;99981.63;5091396;28;20203;-71
2023/08/07 07:41:45;;;;;;;1.98;0.57;;;;;;;24.07;43.34;99988.75;5092111;28;20028;-71
2023/08/07 07:44:10;;;;;;;1.83;0.60;;;;;;;24.07;43.18;99991.44;5092032;28;20373;-71
2023/08/07 07:46:36;;;;;;;2.42;0.50;;;;;;;24.06;43.23;99992.34;5091980;28;20024;-72
2023/08/07 07:49:03;;;;;;;0.95;0.43;;;;;;;24.05;43.35;99982.66;5091708;28;20020;-71
2023/08/07 07:51:29;;;;;;;0.57;0.35;;;;;;;24.07;43.45;99987.91;5091806;28;20027;-71
2023/08/07 07:53:54;;;;;;;1.60;0.60;;;;;;;24.06;43.40;99980.88;5091553;28;20024;-71
2023/08/07 07:56:20;;;;;;;0.57;0.30;;;;;;;24.05;43.20;99985.31;5091529;28;20024;-72
2023/08/07 07:58:45;;;;;;;1.65;0.57;;;;;;;24.07;43.51;99977.22;5091905;28;20043;-71
2023/08/07 08:01:11;;;;;;;1.05;0.40;;;;;;;24.06;43.21;99978.19;5091376;28;20040;-72
2023/08/07 08:03:36;;;;;;;0.73;0.30;;;;;;;24.09;43.27;99975.34;5091910;28;20020;-71
2023/08/07 08:06:02;;;;;;;1.20;0.50;;;;;;;24.09;43.58;99976.22;5091891;28;20388;-71
2023/08/07 08:08:27;;;;;;;1.15;0.35;;;;;;;24.10;43.38;99977.91;5095054;28;20063;-71
2023/08/07 08:10:53;;;;;;;1.42;0.47;;;;;;;24.11;43.37;99978.75;5095328;28;20027;-71
2023/08/07 08:13:18;;;;;;;2.45;0.57;;;;;;;24.12;43.45;99980.50;5093930;28;20016;-70
2023/08/07 08:15:45;;;;;;;1.35;0.50;;;;;;;24.12;43.23;99980.50;5095387;28;20035;-71
2023/08/07 08:18:11;;;;;;;3.53;0.40;;;;;;;24.11;43.21;99978.75;5095185;28;20039;-71
2023/08/07 08:20:37;;;;;;;1.17;0.52;;;;;;;24.13;43.21;99983.03;5095307;28;20024;-71
2023/08/07 08:23:03;;;;;;;0.80;0.30;;;;;;;24.13;43.23;99979.53;5095040;28;20428;-71
2023/08/07 08:25:28;;;;;;;0.98;0.40;;;;;;;24.12;43.43;99981.31;5095052;28;20048;-72
2023/08/07 08:27:54;;;;;;;1.00;0.35;;;;;;;24.15;43.36;99992.75;5094949;28;20464;-71
2023/08/07 08:30:20;;;;;;;0.77;0.38;;;;;;;24.17;43.40;99982.84;5095034;28;20115;-71
2023/08/07 08:32:45;;;;;;;1.02;0.40;;;;;;;24.15;43.26;99984.75;5095441;28;20107;-72
2023/08/07 08:35:11;;;;;;;1.25;0.50;;;;;;;24.20;43.36;99982.63;5094905;28;20102;-71
2023/08/07 08:37:37;;;;;;;2.05;0.50;;;;;;;24.18;43.36;99980.06;5094850;28;20028;-72
2023/08/07 08:40:02;;;;;;;0.73;0.30;;;;;;;24.21;43.13;99979.84;5094754;28;20373;-71
2023/08/07 08:42:28;;;;;;;1.00;0.30;;;;;;;24.20;43.19;99978.16;5094962;28;20031;-70
2023/08/07 08:44:59;;;;;;;1.05;0.32;;;;;;;24.22;43.43;99981.56;5093585;28;20052;-72
2023/08/07 08:47:36;;;;;;;0.77;0.50;;;;;;;24.21;43.29;99974.53;5094946;28;20039;-70
2023/08/07 08:50:08;;;;;;;1.30;0.50;;;;;;;24.24;43.03;99973.47;5094284;28;20028;-69
2023/08/07 08:52:37;;;;;;;1.48;0.57;;;;;;;24.24;43.32;99978.78;5093361;28;20059;-71
2023/08/07 08:55:02;;;;;;;1.20;0.50;;;;;;;24.24;43.30;99979.66;5094696;28;20035;-72
2023/08/07 08:57:32;;;;;;;1.30;0.50;;;;;;;24.26;43.29;99983.06;5094332;28;20036;-71
2023/08/07 08:59:58;;;;;;;1.45;0.60;;;;;;;24.29;43.35;99981.16;5094394;28;20033;-72
2023/08/07 09:02:25;;;;;;;1.10;0.55;;;;;;;24.30;43.14;99982.88;5094293;28;20478;-71
2023/08/07 09:04:50;;;;;;;1.45;0.40;;;;;;;24.32;43.11;99987.16;5093873;28;20487;-72
2023/08/07 09:07:16;;;;;;;0.77;0.30;;;;;;;24.33;43.00;99986.19;5094418;28;20103;-71
2023/08/07 09:09:44;;;;;;;1.52;0.40;;;;;;;24.36;43.07;99988.63;5092938;28;20024;-70
2023/08/07 09:12:16;;;;;;;1.02;0.30;;;;;;;24.37;43.17;99992.19;5094262;28;20051;-71
2023/08/07 09:14:49;;;;;;;0.98;0.35;;;;;;;24.39;43.07;99990.25;5094251;28;20044;-72
2023/08/07 09:17:23;;;;;;;1.98;0.55;;;;;;;24.39;43.11;99988.44;5094173;28;20030;-71
2023/08/07 09:19:48;;;;;;;1.17;0.47;;;;;;;24.42;43.11;99986.53;5093088;28;20050;-71
2023/08/07 09:22:14;;;;;;;0.80;0.40;;;;;;;24.43;43.23;99988.22;5094015;28;20514;-72
2023/08/07 09:24:40;;;;;;;1.02;0.43;;;;;;;24.44;43.00;99990.78;5094110;28;20476;-71
2023/08/07 09:27:07;;;;;;;1.30;0.40;;;;;;;24.46;43.15;99988.03;5093842;28;20103;-71
2023/08/07 09:29:33;;;;;;;1.38;0.40;;;;;;;24.47;42.71;99990.59;5093878;28;20028;-71
2023/08/07 09:32:09;;;;;;;1.00;0.50;;;;;;;24.48;43.13;99978.09;5092555;28;20020;-71
2023/08/07 09:34:34;;;;;;;1.50;0.47;;;;;;;24.48;43.13;99981.63;5093380;28;20031;-72
2023/08/07 09:37:01;;;;;;;1.35;0.47;;;;;;;24.49;43.18;99983.34;5092550;28;20028;-71
2023/08/07 09:39:27;;;;;;;1.05;0.50;;;;;;;24.48;43.03;99980.78;5093581;28;20031;-71
2023/08/07 09:41:52;;;;;;;1.23;0.40;;;;;;;24.49;42.94;99971.81;5093680;28;20020;-71
2023/08/07 09:44:18;;;;;;;1.33;0.40;;;;;;;24.51;43.19;99972.56;5093599;28;20048;-71
2023/08/07 09:46:47;;;;;;;1.48;0.68;;;;;;;24.52;42.94;99971.59;5093650;28;20028;-72
2023/08/07 09:49:18;;;;;;;0.77;0.32;;;;;;;24.53;43.11;99973.31;5091852;28;20400;-71
2023/08/07 09:51:45;;;;;;;1.10;0.40;;;;;;;24.54;43.09;99975.00;5093591;28;20076;-71
2023/08/07 09:54:11;;;;;;;1.20;0.40;;;;;;;24.54;43.23;99969.69;5093421;28;20035;-71
2023/08/07 09:56:42;;;;;;;0.95;0.40;;;;;;;24.56;43.11;99972.25;5093610;28;20388;-70
2023/08/07 09:59:08;;;;;;;1.45;0.60;;;;;;;24.56;43.10;99962.44;5093357;28;20024;-71
2023/08/07 10:01:38;;;;;;;1.33;0.47;;;;;;;24.57;43.38;99969.47;5093038;28;20531;-71
2023/08/07 10:04:06;;;;;;;1.00;0.40;;;;;;;24.58;42.84;99965.84;5093029;28;20024;-72
2023/08/07 10:06:32;;;;;;;2.65;0.55;;;;;;;24.61;43.13;99959.44;5093294;28;20027;-71
2023/08/07 10:08:59;;;;;;;1.00;0.40;;;;;;;24.59;43.29;99959.56;5092947;28;20387;-71
2023/08/07 10:11:25;;;;;;;1.70;0.50;;;;;;;24.61;43.00;99960.31;5092882;28;20039;-71
2023/08/07 10:13:52;;;;;;;1.38;0.63;;;;;;;24.62;43.08;99964.69;5092831;28;20024;-72
2023/08/07 10:16:17;;;;;;;1.45;0.60;;;;;;;24.62;43.05;99956.69;5092866;28;20134;-71
2023/08/07 10:18:43;;;;;;;1.35;0.50;;;;;;;24.63;42.95;99947.72;5092788;28;20492;-72
2023/08/07 10:21:09;;;;;;;1.80;0.40;;;;;;;24.64;43.35;99954.75;5092787;28;20431;-71
2023/08/07 10:23:36;;;;;;;1.17;0.30;;;;;;;24.65;43.02;99945.78;5092851;28;20056;-71
2023/08/07 10:26:05;;;;;;;0.95;0.40;;;;;;;24.68;42.92;99950.06;5092789;28;20057;-72
2023/08/07 10:28:37;;;;;;;1.40;0.50;;;;;;;24.69;42.88;99948.25;5092632;28;20035;-72
2023/08/07 10:31:05;;;;;;;1.02;0.45;;;;;;;24.71;43.14;99944.53;5091867;28;20102;-71
2023/08/07 10:33:31;;;;;;;0.88;0.40;;;;;;;24.72;42.88;99948.03;5090849;28;20509;-71
2023/08/07 10:35:57;;;;;;;1.10;0.40;;;;;;;24.72;42.90;99943.56;5092686;28;20026;-72
2023/08/07 10:38:23;;;;;;;1.75;0.45;;;;;;;24.76;43.06;99938.84;5092468;28;20077;-71
2023/08/07 10:40:58;;;;;;;2.05;0.50;;;;;;;24.76;43.29;99936.19;5092639;28;20058;-71
2023/08/07 10:43:24;;;;;;;1.00;0.50;;;;;;;24.78;43.13;99934.25;5092502;28;20392;-72
2023/08/07 10:45:50;;;;;;;2.03;0.60;;;;;;;24.80;43.16;99937.69;5092016;28;20027;-72
2023/08/07 10:48:19;;;;;;;1.10;0.55;;;;;;;24.82;42.72;99930.47;5092394;28;20032;-71
2023/08/07 10:50:53;;;;;;;1.13;0.40;;;;;;;24.82;43.01;99930.47;5092436;28;20099;-72
2023/08/07 10:53:30;;;;;;;1.73;0.50;;;;;;;24.84;43.13;99925.00;5092406;28;20131;-72
2023/08/07 10:55:58;;;;;;;1.70;0.52;;;;;;;24.87;42.88;99930.13;5092389;28;20031;-71
2023/08/07 10:58:34;;;;;;;0.93;0.40;;;;;;;24.87;42.89;99927.44;5092449;28;20061;-71
2023/08/07 11:01:22;;;;;;;1.70;0.80;;;;;;;24.89;42.84;99914.88;5091763;28;20040;-72
2023/08/07 11:03:58;;;;;;;2.78;0.50;;;;;;;24.89;42.85;99910.38;5092052;28;20177;-70
2023/08/07 11:06:30;;;;;;;1.77;0.60;;;;;;;24.90;43.11;99912.06;5092305;28;20031;-71
2023/08/07 11:08:56;;;;;;;1.23;0.50;;;;;;;24.91;43.16;99911.13;5092106;28;20035;-71
2023/08/07 11:11:22;;;;;;;2.15;0.70;;;;;;;24.93;42.88;99909.19;5092269;28;20028;-71
2023/08/07 11:13:47;;;;;;;1.13;0.38;;;;;;;24.94;42.80;99908.22;5092056;28;20124;-71
2023/08/07 11:16:13;;;;;;;1.50;0.65;;;;;;;24.96;43.06;99907.25;5091719;28;20055;-71
2023/08/07 11:18:42;;;;;;;1.20;0.52;;;;;;;24.97;43.06;99906.28;5092106;28;20028;-72
2023/08/07 11:21:11;;;;;;;1.45;0.50;;;;;;;24.99;42.99;99907.06;5092064;28;20051;-71
2023/08/07 11:23:40;;;;;;;1.80;0.60;;;;;;;24.99;42.90;99899.06;5091890;28;20024;-70
2023/08/07 11:26:06;;;;;;;1.58;0.45;;;;;;;25.01;43.05;99903.31;5091779;28;20541;-71
2023/08/07 11:28:32;;;;;;;1.48;0.50;;;;;;;25.02;43.04;99901.50;5091967;28;20032;-72
2023/08/07 11:30:58;;;;;;;0.98;0.47;;;;;;;25.03;42.83;99896.03;5091401;28;20024;-72